Time;durP1;ratioP1;P1;durP2;ratioP2;P2;SDS_P1;SDS_P2;PMS_P1;PMS_P2;Temp;Humidity;BMP_temperature;BMP_pressure;BME280_temperature;BME280_humidity;BME280_pressure;Samples;Min_cycle;Max_cycle;Signal;HPM_P1;HPM_P2
2021/12/15 00:02:18;;;;;;;51.10;40.57;;;14.90;88.30;;;;;;5127327;29;20075;-31
2021/12/15 00:04:51;;;;;;;50.83;36.70;;;14.90;88.40;;;;;;5126913;29;20493;-31
2021/12/15 00:07:24;;;;;;;72.90;48.23;;;14.90;88.50;;;;;;5109580;29;20079;-31
2021/12/15 00:09:55;;;;;;;62.78;42.65;;;14.80;88.50;;;;;;5109585;29;20055;-31
2021/12/15 00:12:26;;;;;;;59.60;41.07;;;14.80;88.60;;;;;;5094455;29;20054;-31
2021/12/15 00:14:57;;;;;;;72.97;48.33;;;14.80;88.70;;;;;;5126509;29;20083;-31
2021/12/15 00:17:28;;;;;;;95.03;58.40;;;14.80;88.70;;;;;;5126975;29;20412;-34
2021/12/15 00:19:59;;;;;;;84.50;51.80;;;14.80;88.90;;;;;;5109447;29;20040;-33
2021/12/15 00:22:31;;;;;;;121.03;72.90;;;14.80;89.00;;;;;;5109589;29;20166;-34
2021/12/15 00:25:03;;;;;;;120.97;76.33;;;14.80;88.90;;;;;;5126540;29;20125;-33
2021/12/15 00:27:34;;;;;;;113.35;60.47;;;14.80;89.00;;;;;;5109460;29;20044;-30
2021/12/15 00:30:06;;;;;;;127.10;61.47;;;14.80;89.00;;;;;;5109867;28;20055;-32
2021/12/15 00:32:38;;;;;;;96.20;57.33;;;14.80;88.90;;;;;;5126222;29;20142;-31
2021/12/15 00:35:09;;;;;;;89.47;49.87;;;14.80;88.90;;;;;;5126201;29;20130;-32
2021/12/15 00:37:40;;;;;;;59.77;38.67;;;14.80;89.00;;;;;;5109254;29;20075;-32
2021/12/15 00:40:12;;;;;;;47.30;34.60;;;14.70;88.90;;;;;;5109436;29;20461;-31
2021/12/15 00:42:43;;;;;;;36.30;26.40;;;14.70;89.00;;;;;;5126268;29;20039;-31
2021/12/15 00:45:15;;;;;;;32.90;25.77;;;14.70;89.20;;;;;;5128520;28;20062;-32
2021/12/15 00:47:47;;;;;;;36.37;26.73;;;14.70;89.40;;;;;;5113286;29;20043;-31
2021/12/15 00:50:19;;;;;;;34.30;25.80;;;14.70;89.70;;;;;;5113300;29;20142;-31
2021/12/15 00:52:51;;;;;;;34.42;25.77;;;14.70;90.00;;;;;;5113678;29;20548;-32
2021/12/15 00:55:27;;;;;;;32.37;24.87;;;14.70;90.20;;;;;;5097262;29;20127;-31
2021/12/15 00:57:59;;;;;;;35.03;25.37;;;14.60;90.20;;;;;;5097507;29;20497;-33
2021/12/15 01:00:54;;;;;;;34.63;25.13;;;14.60;90.20;;;;;;5113232;29;20126;-30
2021/12/15 01:03:25;;;;;;;32.07;22.97;;;14.60;90.20;;;;;;5113303;29;20039;-31
2021/12/15 01:06:03;;;;;;;32.20;23.73;;;14.60;90.20;;;;;;5112887;29;20062;-34
2021/12/15 01:08:37;;;;;;;36.27;25.40;;;14.70;90.30;;;;;;5130220;29;20047;-31
2021/12/15 01:19:54;;;;;;;39.03;27.13;;;14.60;90.20;;;;;;5130045;29;20123;-30
2021/12/15 01:22:35;;;;;;;38.30;27.53;;;14.60;90.20;;;;;;5114567;29;20102;-34
2021/12/15 01:25:23;;;;;;;39.60;27.97;;;14.60;90.20;;;;;;5129325;29;20078;-33
2021/12/15 01:27:54;;;;;;;39.07;28.20;;;14.60;90.30;;;;;;5128304;29;20118;-31
2021/12/15 01:30:28;;;;;;;35.10;26.97;;;14.60;90.20;;;;;;5129403;28;20040;-31
2021/12/15 01:33:00;;;;;;;35.73;25.70;;;14.60;90.20;;;;;;5129142;29;20082;-33
2021/12/15 01:35:31;;;;;;;37.57;26.10;;;14.60;90.20;;;;;;5129201;29;20134;-31
2021/12/15 01:38:02;;;;;;;38.50;27.43;;;14.60;90.10;;;;;;5128139;29;20405;-31
2021/12/15 01:40:37;;;;;;;39.57;27.80;;;14.60;90.10;;;;;;5129347;29;20102;-33
2021/12/15 01:43:14;;;;;;;40.53;29.03;;;14.60;90.00;;;;;;5112706;29;20043;-31
2021/12/15 01:48:37;;;;;;;39.13;26.77;;;14.60;90.00;;;;;;5114399;29;20087;-31
2021/12/15 01:51:10;;;;;;;32.63;23.40;;;14.60;90.00;;;;;;5129220;29;20053;-31
2021/12/15 01:53:41;;;;;;;32.17;23.45;;;14.60;90.10;;;;;;5128997;29;20047;-30
2021/12/15 01:56:12;;;;;;;31.33;21.83;;;14.60;90.20;;;;;;5127788;28;20047;-30
2021/12/15 01:58:43;;;;;;;34.93;23.83;;;14.60;90.30;;;;;;5128069;29;20058;-31
2021/12/15 02:01:14;;;;;;;34.27;24.03;;;14.60;90.30;;;;;;5128813;29;20171;-33
2021/12/15 02:03:45;;;;;;;34.40;22.77;;;14.50;90.30;;;;;;5111866;29;20134;-31
2021/12/15 02:06:16;;;;;;;29.60;21.37;;;14.50;90.40;;;;;;5111711;29;20039;-31
2021/12/15 02:08:48;;;;;;;31.93;22.20;;;14.50;90.40;;;;;;5129248;29;20543;-33
2021/12/15 02:11:20;;;;;;;34.55;24.15;;;14.50;90.40;;;;;;5128717;29;20190;-35
2021/12/15 02:13:51;;;;;;;31.87;23.73;;;14.60;90.30;;;;;;5111715;29;20106;-31
2021/12/15 02:16:22;;;;;;;27.03;20.60;;;14.50;90.30;;;;;;5111554;29;20043;-31
2021/12/15 02:18:53;;;;;;;31.43;23.90;;;14.50;90.20;;;;;;5128602;29;20047;-33
2021/12/15 02:21:25;;;;;;;32.67;23.43;;;14.50;90.20;;;;;;5111511;29;20047;-31
2021/12/15 02:23:58;;;;;;;32.67;23.00;;;14.50;90.20;;;;;;5128957;29;20533;-32
2021/12/15 02:26:34;;;;;;;31.67;23.47;;;14.50;90.20;;;;;;5129025;29;20059;-32
2021/12/15 02:29:06;;;;;;;31.43;22.93;;;14.50;90.20;;;;;;5128489;29;20039;-33
2021/12/15 02:32:09;;;;;;;29.37;22.67;;;14.50;90.10;;;;;;5111439;29;20078;-31
2021/12/15 02:34:57;;;;;;;29.53;22.63;;;14.50;90.10;;;;;;5113829;29;20067;-31
2021/12/15 02:37:22;;;;;;;31.77;23.80;;;14.50;90.10;;;;;;5113797;29;20051;-31
2021/12/15 02:40:00;;;;;;;32.13;25.83;;;14.50;90.00;;;;;;5127853;29;20051;-31
2021/12/15 02:42:34;;;;;;;30.27;23.50;;;14.50;90.00;;;;;;5111718;29;20090;-31
2021/12/15 02:45:06;;;;;;;31.97;24.83;;;14.50;90.00;;;;;;5128174;29;20118;-31
2021/12/15 02:47:38;;;;;;;32.42;24.30;;;14.50;90.00;;;;;;5128112;29;20101;-31
2021/12/15 02:50:11;;;;;;;31.30;23.40;;;14.50;90.00;;;;;;5110774;29;20441;-31
2021/12/15 02:52:42;;;;;;;32.33;23.40;;;14.50;90.00;;;;;;5127970;29;20067;-30
2021/12/15 02:55:13;;;;;;;34.43;25.07;;;14.50;89.90;;;;;;5128137;29;20047;-31
2021/12/15 02:57:48;;;;;;;34.60;25.33;;;14.50;89.80;;;;;;5094843;29;20130;-31
2021/12/15 03:00:26;;;;;;;36.77;25.90;;;14.50;89.70;;;;;;5109918;29;20075;-31
2021/12/15 03:05:46;;;;;;;36.72;26.30;;;14.50;89.50;;;;;;5127505;29;20452;-31
2021/12/15 03:08:35;;;;;;;37.37;24.80;;;14.50;89.40;;;;;;5127640;28;20054;-34
2021/12/15 03:16:46;;;;;;;34.67;25.23;;;14.40;89.10;;;;;;5113402;29;20039;-31
2021/12/15 03:19:17;;;;;;;35.43;25.67;;;14.50;89.20;;;;;;5126266;29;20047;-31
2021/12/15 03:21:48;;;;;;;32.60;25.20;;;14.40;89.10;;;;;;5094476;29;20186;-33
2021/12/15 03:24:20;;;;;;;32.43;23.90;;;14.50;89.10;;;;;;5127229;29;20055;-31
2021/12/15 03:27:08;;;;;;;37.53;27.42;;;14.50;89.10;;;;;;5094804;29;20162;-31
2021/12/15 03:35:35;;;;;;;28.67;21.60;;;14.50;89.00;;;;;;5127483;29;20496;-31
2021/12/15 03:38:06;;;;;;;28.63;20.90;;;14.50;88.90;;;;;;5112582;29;20442;-31
2021/12/15 03:40:40;;;;;;;31.90;23.87;;;14.50;88.90;;;;;;5127672;29;20091;-33
2021/12/15 03:43:13;;;;;;;31.40;23.77;;;14.50;88.90;;;;;;5126793;29;20093;-31
2021/12/15 03:45:48;;;;;;;35.92;24.95;;;14.50;88.90;;;;;;5110115;29;20542;-33
2021/12/15 03:48:22;;;;;;;28.30;21.17;;;14.40;88.80;;;;;;5127205;29;20063;-31
2021/12/15 03:50:56;;;;;;;35.83;24.30;;;14.40;88.80;;;;;;5077575;29;20047;-30
2021/12/15 03:53:26;;;;;;;;;;;14.50;88.80;;;;;;5127183;29;20048;-32
2021/12/15 03:55:58;;;;;;;31.83;21.70;;;14.50;88.80;;;;;;5127087;29;19933;-33
2021/12/15 03:58:29;;;;;;;41.17;27.90;;;14.50;88.80;;;;;;5109584;29;20078;-31
2021/12/15 04:01:06;;;;;;;49.13;33.37;;;14.40;88.70;;;;;;5126699;29;20039;-30
2021/12/15 04:03:41;;;;;;;38.87;27.47;;;14.40;88.70;;;;;;5110687;29;20053;-33
2021/12/15 04:06:18;;;;;;;33.63;25.47;;;14.40;88.60;;;;;;5109598;29;20482;-32
2021/12/15 04:08:49;;;;;;;38.70;28.87;;;14.40;88.60;;;;;;5126772;29;20054;-31
2021/12/15 04:11:22;;;;;;;32.73;25.77;;;14.40;88.60;;;;;;5125477;29;20083;-34
2021/12/15 04:13:58;;;;;;;30.57;22.27;;;14.40;88.50;;;;;;5109326;29;20413;-33
2021/12/15 04:19:04;;;;;;;27.77;20.90;;;14.40;88.30;;;;;;5125932;28;20058;-31
2021/12/15 04:21:37;;;;;;;25.67;20.00;;;14.40;88.30;;;;;;5108690;29;20055;-34
2021/12/15 04:24:09;;;;;;;24.80;19.27;;;14.40;88.20;;;;;;5109618;29;20082;-34
2021/12/15 04:26:40;;;;;;;24.67;19.83;;;14.40;88.10;;;;;;5109739;29;20143;-31
2021/12/15 04:29:12;;;;;;;27.33;19.93;;;14.40;88.00;;;;;;5109488;29;20379;-34
2021/12/15 04:31:56;;;;;;;26.73;21.10;;;14.40;88.00;;;;;;5125002;28;20074;-31
2021/12/15 04:34:27;;;;;;;24.63;20.20;;;14.40;88.00;;;;;;5110032;29;20047;-34
2021/12/15 04:36:59;;;;;;;26.27;20.27;;;14.40;88.00;;;;;;5126430;29;20067;-31
2021/12/15 04:39:30;;;;;;;24.10;19.13;;;14.40;87.90;;;;;;5126348;29;20516;-33
2021/12/15 04:42:01;;;;;;;23.17;18.77;;;14.40;87.80;;;;;;5126888;29;20049;-30
2021/12/15 04:44:33;;;;;;;21.50;19.20;;;14.40;87.80;;;;;;5108585;29;20118;-31
2021/12/15 04:47:10;;;;;;;21.67;17.97;;;14.40;87.70;;;;;;5125768;29;20070;-31
2021/12/15 04:49:50;;;;;;;23.97;19.73;;;14.40;87.70;;;;;;5126136;29;20086;-31
2021/12/15 04:52:24;;;;;;;26.90;20.87;;;14.40;87.80;;;;;;5126446;29;20126;-31
2021/12/15 04:54:56;;;;;;;27.70;20.17;;;14.40;87.80;;;;;;5125063;29;20056;-31
2021/12/15 04:57:28;;;;;;;27.17;21.05;;;14.40;87.80;;;;;;5109336;29;20043;-34
2021/12/15 04:59:59;;;;;;;26.80;20.50;;;14.40;87.90;;;;;;5109235;29;20044;-32
2021/12/15 05:02:30;;;;;;;23.63;19.17;;;14.40;87.90;;;;;;5109191;29;20122;-31
2021/12/15 05:05:01;;;;;;;24.93;19.50;;;14.40;88.00;;;;;;5093250;29;20047;-31
2021/12/15 05:07:32;;;;;;;23.43;17.80;;;14.40;88.10;;;;;;5126592;29;20130;-30
2021/12/15 05:10:04;;;;;;;26.53;18.97;;;14.40;88.10;;;;;;5126153;29;20126;-32
2021/12/15 05:12:36;;;;;;;24.63;18.43;;;14.40;88.20;;;;;;5108896;29;20050;-33
2021/12/15 05:15:07;;;;;;;24.97;18.60;;;14.40;88.30;;;;;;5109030;29;20047;-33
2021/12/15 05:17:44;;;;;;;22.87;17.33;;;14.40;88.30;;;;;;5140042;28;20532;-31
2021/12/15 05:20:23;;;;;;;23.07;17.43;;;14.50;88.40;;;;;;5141175;28;20042;-30
2021/12/15 05:22:54;;;;;;;19.90;16.97;;;14.60;88.40;;;;;;5126234;28;20043;-30
2021/12/15 05:25:25;;;;;;;19.77;16.07;;;14.60;88.50;;;;;;5138931;28;20043;-30
2021/12/15 05:27:56;;;;;;;20.43;17.43;;;14.60;88.40;;;;;;5143158;28;20057;-30
2021/12/15 05:30:27;;;;;;;21.60;17.60;;;14.70;88.30;;;;;;5109896;28;20113;-31
2021/12/15 05:32:58;;;;;;;24.77;17.57;;;14.70;88.30;;;;;;5128542;28;20504;-30
2021/12/15 05:35:30;;;;;;;24.60;17.47;;;14.70;88.30;;;;;;5112611;28;20075;-31
2021/12/15 05:38:03;;;;;;;22.70;17.27;;;14.70;88.20;;;;;;5146408;28;20057;-30
2021/12/15 05:40:34;;;;;;;;;;;14.70;88.20;;;;;;5145127;28;20130;-33
2021/12/15 05:43:05;;;;;;;23.67;18.83;;;14.80;88.30;;;;;;5146170;28;20022;-31
2021/12/15 05:45:38;;;;;;;37.87;29.63;;;14.80;88.40;;;;;;5146615;28;20547;-30
2021/12/15 05:48:11;;;;;;;55.47;41.10;;;14.80;88.40;;;;;;5148094;28;20074;-30
2021/12/15 05:50:42;;;;;;;58.78;43.78;;;14.80;88.60;;;;;;5149104;28;20053;-32
2021/12/15 05:53:14;;;;;;;39.27;30.67;;;14.80;88.60;;;;;;5149191;28;20378;-30
2021/12/15 05:55:45;;;;;;;35.87;27.17;;;14.90;88.60;;;;;;5149011;28;20087;-29
2021/12/15 05:58:16;;;;;;;33.77;25.63;;;14.90;88.40;;;;;;5148899;28;20127;-30
2021/12/15 06:00:47;;;;;;;33.57;26.20;;;15.00;88.20;;;;;;5131604;28;20537;-30
2021/12/15 06:03:18;;;;;;;34.30;25.20;;;15.20;88.00;;;;;;5131723;28;20129;-31
2021/12/15 06:05:49;;;;;;;19.37;16.40;;;15.30;88.20;;;;;;5131111;28;20105;-30
2021/12/15 06:08:21;;;;;;;22.60;19.30;;;13.70;90.80;;;;;;5148820;28;20045;-31
2021/12/15 06:10:52;;;;;;;21.57;19.23;;;12.70;92.40;;;;;;5147605;28;20055;-33
2021/12/15 06:13:26;;;;;;;19.70;17.60;;;12.10;93.20;;;;;;5148608;28;20527;-32
2021/12/15 06:15:57;;;;;;;23.63;18.47;;;11.80;93.90;;;;;;5148661;28;20125;-31
2021/12/15 06:18:29;;;;;;;27.30;21.63;;;11.70;94.40;;;;;;5148481;28;20467;-29
2021/12/15 06:21:00;;;;;;;35.80;25.90;;;11.50;94.50;;;;;;5115580;28;20047;-31
2021/12/15 06:23:32;;;;;;;48.50;31.77;;;11.40;94.80;;;;;;5131286;28;20046;-29
2021/12/15 06:26:08;;;;;;;33.37;23.80;;;11.40;94.80;;;;;;5132217;28;20039;-29
2021/12/15 06:28:39;;;;;;;47.47;31.70;;;11.40;95.10;;;;;;5148200;28;20053;-29
2021/12/15 06:31:12;;;;;;;49.50;29.03;;;11.40;95.00;;;;;;5148836;28;20051;-29
2021/12/15 06:34:04;;;;;;;65.50;34.93;;;11.40;95.10;;;;;;5131528;28;20083;-29
2021/12/15 06:36:43;;;;;;;27.77;21.43;;;11.40;95.20;;;;;;5147263;28;20050;-30
2021/12/15 06:39:17;;;;;;;35.00;24.57;;;11.40;95.30;;;;;;5131656;28;20532;-32
2021/12/15 06:41:56;;;;;;;37.47;25.03;;;11.40;95.30;;;;;;5130777;28;20047;-32
2021/12/15 06:44:28;;;;;;;39.37;32.37;;;11.40;95.30;;;;;;5147674;28;20065;-33
2021/12/15 06:58:39;;;;;;;66.40;45.70;;;11.20;96.00;;;;;;5086443;29;20074;-30
2021/12/15 07:01:13;;;;;;;70.20;47.42;;;11.20;95.90;;;;;;5084977;29;20064;-34
2021/12/15 07:03:44;;;;;;;;;;;11.20;96.10;;;;;;5069941;29;20052;-32
2021/12/15 07:06:15;;;;;;;63.27;41.10;;;11.10;96.20;;;;;;5085418;29;19926;-32
2021/12/15 07:08:46;;;;;;;59.97;39.43;;;11.00;96.30;;;;;;5085976;29;20506;-32
2021/12/15 07:11:20;;;;;;;49.77;33.20;;;11.00;96.50;;;;;;5086068;29;20059;-33
2021/12/15 07:14:11;;;;;;;47.13;30.63;;;11.00;96.60;;;;;;5085641;29;20487;-32
2021/12/15 07:16:45;;;;;;;42.50;28.37;;;11.00;96.70;;;;;;5047156;29;20590;-31
2021/12/15 07:24:57;;;;;;;32.07;23.83;;;10.90;96.80;;;;;;5063239;29;20060;-33
2021/12/15 07:27:28;;;;;;;31.83;23.07;;;10.90;96.90;;;;;;5050957;29;20139;-33
2021/12/15 07:30:00;;;;;;;35.00;25.10;;;10.90;97.00;;;;;;5050084;29;20055;-32
2021/12/15 07:32:32;;;;;;;36.47;27.58;;;10.80;96.90;;;;;;5050009;29;20454;-32
2021/12/15 07:35:04;;;;;;;54.33;41.37;;;10.80;97.00;;;;;;5065124;29;20135;-32
2021/12/15 07:37:44;;;;;;;;;;;10.80;97.20;;;;;;5065075;29;20055;-32
2021/12/15 07:40:41;;;;;;;61.77;41.93;;;10.80;97.30;;;;;;4988911;29;19924;-31
2021/12/15 07:43:35;;;;;;;72.25;47.40;;;10.70;97.30;;;;;;4974178;29;20532;-33
2021/12/15 07:46:23;;;;;;;69.73;45.27;;;10.70;97.40;;;;;;4932938;30;20088;-33
2021/12/15 07:49:15;;;;;;;74.70;45.53;;;11.10;97.10;;;;;;4932897;30;20515;-32
2021/12/15 07:52:04;;;;;;;64.13;39.93;;;11.60;96.40;;;;;;4933130;30;20060;-34
2021/12/15 07:54:53;;;;;;;62.23;38.83;;;12.00;95.80;;;;;;4967393;29;20067;-32
2021/12/15 07:57:40;;;;;;;57.77;38.07;;;12.30;95.40;;;;;;4970507;29;20134;-31
2021/12/15 08:00:32;;;;;;;80.15;48.00;;;12.60;94.90;;;;;;5008104;29;20145;-31
2021/12/15 08:03:19;;;;;;;84.17;49.97;;;12.80;94.60;;;;;;4998666;29;20118;-33
2021/12/15 08:05:55;;;;;;;59.05;37.40;;;13.10;94.30;;;;;;5004102;29;20069;-31
2021/12/15 08:08:27;;;;;;;41.50;26.27;;;13.20;94.00;;;;;;4989158;29;20153;-31
2021/12/15 08:11:15;;;;;;;38.03;25.13;;;13.30;93.80;;;;;;4988936;29;20046;-31
2021/12/15 08:14:02;;;;;;;40.30;27.00;;;13.50;93.60;;;;;;4989180;29;20066;-31
2021/12/15 08:16:42;;;;;;;38.83;25.13;;;13.60;93.50;;;;;;5003699;29;20046;-31
2021/12/15 08:19:16;;;;;;;36.10;23.57;;;13.70;93.30;;;;;;5004535;29;20105;-31
2021/12/15 08:21:49;;;;;;;37.83;23.90;;;13.70;93.20;;;;;;4989019;29;20066;-31
2021/12/15 08:24:22;;;;;;;53.00;33.92;;;13.80;93.20;;;;;;5003457;29;20058;-33
2021/12/15 08:27:09;;;;;;;151.30;104.77;;;13.80;93.00;;;;;;4987834;29;20102;-34
2021/12/15 08:29:42;;;;;;;75.73;53.27;;;13.90;92.90;;;;;;5018238;29;20057;-32
2021/12/15 08:32:13;;;;;;;73.73;54.87;;;14.00;92.90;;;;;;5035681;29;20068;-34
2021/12/15 08:34:46;;;;;;;78.50;55.85;;;14.00;92.90;;;;;;5046017;29;20148;-32
2021/12/15 08:37:17;;;;;;;54.37;36.17;;;14.10;92.90;;;;;;5045904;29;20061;-31
2021/12/15 08:39:49;;;;;;;40.60;28.33;;;14.10;92.90;;;;;;5060839;29;20060;-31
2021/12/15 08:42:30;;;;;;;36.43;26.57;;;14.10;92.90;;;;;;5068929;29;20442;-30
2021/12/15 08:45:19;;;;;;;38.70;27.57;;;14.20;92.90;;;;;;5084791;29;20462;-34
2021/12/15 08:47:58;;;;;;;35.53;25.92;;;14.20;92.90;;;;;;5069084;29;20151;-34
2021/12/15 08:51:02;;;;;;;34.63;23.07;;;14.20;92.90;;;;;;5055039;29;20095;-31
2021/12/15 08:57:19;;;;;;;32.07;23.00;;;14.30;92.90;;;;;;5051066;29;20079;-30
2021/12/15 08:59:56;;;;;;;35.50;26.10;;;14.30;92.90;;;;;;5049721;29;20048;-32
2021/12/15 09:05:52;;;;;;;40.40;30.17;;;14.30;93.00;;;;;;4974531;29;20062;-31
2021/12/15 09:08:36;;;;;;;37.53;28.70;;;14.30;93.00;;;;;;4992153;29;20142;-32
2021/12/15 09:11:23;;;;;;;33.30;26.10;;;14.30;93.00;;;;;;4992385;29;20058;-30
2021/12/15 09:14:02;;;;;;;31.40;24.13;;;14.30;93.00;;;;;;4985388;29;20442;-31
2021/12/15 09:17:05;;;;;;;32.07;25.07;;;14.30;93.00;;;;;;4978968;29;20059;-30
2021/12/15 09:19:38;;;;;;;34.40;27.03;;;14.30;93.20;;;;;;4970438;29;20067;-32
2021/12/15 09:22:13;;;;;;;31.10;23.50;;;14.40;93.30;;;;;;4970653;29;20055;-31
2021/12/15 09:24:58;;;;;;;31.60;24.00;;;14.40;93.30;;;;;;4970763;29;20489;-31
2021/12/15 09:27:31;;;;;;;32.20;24.60;;;14.50;93.20;;;;;;4970783;29;20549;-31
2021/12/15 09:30:50;;;;;;;34.00;27.63;;;14.50;93.10;;;;;;4941455;29;20086;-31
2021/12/15 09:33:26;;;;;;;39.37;29.20;;;14.60;93.00;;;;;;4956088;29;20050;-30
2021/12/15 09:36:13;;;;;;;41.60;33.37;;;14.60;93.00;;;;;;4938755;29;20560;-31
2021/12/15 09:38:49;;;;;;;56.47;50.57;;;14.70;93.00;;;;;;4939082;29;20593;-31
2021/12/15 09:42:24;;;;;;;47.93;39.83;;;14.70;93.00;;;;;;4988832;29;20580;-31
2021/12/15 09:45:19;;;;;;;40.93;29.93;;;14.60;93.00;;;;;;4970133;29;20478;-32
2021/12/15 10:04:43;;;;;;;35.73;26.30;;;14.70;93.10;;;;;;4946285;29;20483;-31
2021/12/15 10:18:37;;;;;;;32.63;23.88;;;14.60;93.50;;;;;;5064452;29;20052;-35
2021/12/15 10:21:11;;;;;;;30.98;23.98;;;14.70;93.60;;;;;;5101901;28;20046;-31
2021/12/15 10:23:44;;;;;;;;;;;14.60;93.60;;;;;;5149899;28;20050;-32
2021/12/15 10:26:15;;;;;;;33.08;24.45;;;14.60;93.60;;;;;;5166203;28;19944;-32
2021/12/15 10:28:52;;;;;;;37.10;27.30;;;14.60;93.60;;;;;;5148898;28;20046;-33
2021/12/15 10:31:24;;;;;;;32.13;25.57;;;14.60;93.70;;;;;;5166163;28;20519;-32
2021/12/15 10:33:59;;;;;;;36.20;26.20;;;14.60;93.70;;;;;;5148966;28;20055;-32
2021/12/15 10:36:32;;;;;;;33.23;24.43;;;14.60;93.70;;;;;;5165938;28;20404;-31
2021/12/15 10:39:09;;;;;;;32.73;24.60;;;14.60;93.70;;;;;;5164817;28;20046;-32
2021/12/15 10:41:41;;;;;;;35.07;29.83;;;14.60;93.70;;;;;;5130328;28;20080;-31
2021/12/15 10:44:25;;;;;;;35.00;30.77;;;14.60;93.70;;;;;;5144550;28;20054;-32
2021/12/15 10:46:59;;;;;;;35.93;30.60;;;14.60;93.70;;;;;;5129794;28;20091;-32
2021/12/15 10:49:39;;;;;;;35.93;31.03;;;14.60;93.70;;;;;;5130800;28;20062;-32
2021/12/15 10:52:11;;;;;;;34.73;28.67;;;14.60;93.80;;;;;;5130034;28;20058;-33
2021/12/15 10:54:46;;;;;;;33.15;26.67;;;14.60;93.70;;;;;;5145820;28;20513;-31
2021/12/15 10:57:31;;;;;;;33.57;29.57;;;14.60;93.80;;;;;;5145609;28;20055;-32
2021/12/15 11:00:08;;;;;;;28.43;24.13;;;14.60;93.80;;;;;;5145834;28;20046;-32
2021/12/15 11:02:39;;;;;;;30.87;25.83;;;14.60;94.30;;;;;;5130686;28;20508;-32
2021/12/15 11:05:18;;;;;;;35.83;28.13;;;14.60;93.90;;;;;;5145578;28;20480;-31
2021/12/15 11:07:54;;;;;;;35.03;24.93;;;14.50;94.00;;;;;;5129468;28;20050;-34
2021/12/15 11:10:27;;;;;;;30.87;24.13;;;14.50;94.00;;;;;;5129388;28;20066;-32
2021/12/15 11:13:08;;;;;;;30.73;24.27;;;14.50;94.00;;;;;;5160517;28;20062;-32
2021/12/15 11:15:44;;;;;;;30.97;22.37;;;14.50;94.10;;;;;;5167834;28;20415;-33
2021/12/15 11:18:29;;;;;;;28.07;23.03;;;14.60;94.30;;;;;;5150982;28;20053;-32
2021/12/15 11:21:04;;;;;;;31.37;24.33;;;14.60;94.00;;;;;;5166891;28;20050;-34
2021/12/15 11:23:37;;;;;;;37.57;27.37;;;14.60;93.90;;;;;;5150316;28;20493;-30
2021/12/15 11:26:12;;;;;;;48.57;36.57;;;14.60;93.90;;;;;;5150456;28;20433;-32
2021/12/15 11:28:45;;;;;;;64.38;44.67;;;14.60;94.00;;;;;;5149969;28;20038;-31
2021/12/15 11:31:17;;;;;;;;;;;14.60;94.00;;;;;;5167465;28;20121;-32
2021/12/15 11:34:00;;;;;;;59.97;41.13;;;14.50;94.10;;;;;;5149485;28;19933;-33
2021/12/15 11:36:36;;;;;;;49.63;35.13;;;14.60;94.20;;;;;;5105104;29;20410;-33
2021/12/15 11:39:16;;;;;;;45.93;30.83;;;14.60;94.10;;;;;;5073928;29;20094;-32
2021/12/15 11:41:50;;;;;;;38.77;27.97;;;14.60;94.20;;;;;;5089824;29;20079;-32
2021/12/15 11:44:23;;;;;;;42.83;30.37;;;14.50;94.30;;;;;;5104827;29;20047;-31
2021/12/15 11:47:02;;;;;;;41.35;30.80;;;14.60;94.40;;;;;;5089349;29;20054;-32
2021/12/15 11:49:37;;;;;;;45.33;32.90;;;14.50;94.30;;;;;;5105064;29;20043;-31
2021/12/15 11:52:12;;;;;;;45.63;34.17;;;14.60;94.60;;;;;;5105004;29;20639;-34
2021/12/15 11:54:49;;;;;;;48.57;36.57;;;14.60;94.40;;;;;;5104777;29;20048;-33
2021/12/15 11:57:27;;;;;;;47.50;38.13;;;14.60;94.40;;;;;;5089126;29;20051;-31
2021/12/15 12:00:10;;;;;;;41.40;36.00;;;14.60;94.40;;;;;;5104776;29;20055;-33
2021/12/15 12:02:46;;;;;;;43.33;35.20;;;14.60;94.50;;;;;;5104923;29;20134;-33
2021/12/15 12:05:20;;;;;;;53.63;41.20;;;14.50;94.50;;;;;;5089727;29;20052;-31
2021/12/15 12:07:58;;;;;;;40.33;32.72;;;14.50;94.60;;;;;;5146421;28;20058;-33
2021/12/15 12:10:47;;;;;;;40.20;31.23;;;14.50;94.70;;;;;;5165488;28;20050;-34
2021/12/15 12:13:24;;;;;;;42.00;31.73;;;14.50;94.80;;;;;;5133396;28;20062;-31
2021/12/15 12:16:05;;;;;;;42.33;31.47;;;14.60;94.80;;;;;;5149354;28;20050;-33
2021/12/15 12:18:36;;;;;;;41.90;30.27;;;14.60;94.90;;;;;;5149922;28;20050;-32
2021/12/15 12:21:08;;;;;;;45.07;32.63;;;14.60;94.90;;;;;;5166295;28;20042;-31
2021/12/15 12:23:44;;;;;;;46.33;31.73;;;14.60;95.00;;;;;;5149615;28;20050;-33
2021/12/15 12:26:16;;;;;;;51.03;38.23;;;14.60;95.00;;;;;;5149157;28;20046;-31
2021/12/15 12:28:47;;;;;;;45.63;33.37;;;14.60;95.00;;;;;;5149397;28;20042;-31
2021/12/15 12:31:20;;;;;;;44.03;30.50;;;14.60;95.00;;;;;;5131163;28;20054;-32
2021/12/15 12:33:53;;;;;;;44.30;31.13;;;14.60;95.00;;;;;;5166265;28;20062;-31
2021/12/15 12:36:29;;;;;;;43.17;31.83;;;14.60;95.00;;;;;;5166935;28;20046;-31
2021/12/15 12:39:05;;;;;;;42.33;30.30;;;14.70;95.10;;;;;;5149079;28;20502;-32
2021/12/15 12:41:46;;;;;;;45.80;30.10;;;14.70;95.10;;;;;;5169014;28;20541;-34
2021/12/15 12:44:22;;;;;;;44.97;29.57;;;14.70;95.10;;;;;;5170397;28;20121;-34
2021/12/15 12:46:59;;;;;;;45.07;29.70;;;14.70;95.10;;;;;;5171093;28;20435;-31
2021/12/15 13:01:08;;;;;;;89.87;57.90;;;14.70;95.30;;;;;;5169959;28;20057;-31
2021/12/15 13:03:43;;;;;;;58.13;39.23;;;14.70;95.30;;;;;;5153003;28;20524;-31
2021/12/15 13:06:18;;;;;;;53.57;37.77;;;14.70;95.30;;;;;;5170266;28;20050;-31
2021/12/15 13:08:56;;;;;;;64.27;50.17;;;14.70;95.30;;;;;;5169829;28;20463;-31
2021/12/15 13:11:34;;;;;;;59.73;50.60;;;14.70;95.30;;;;;;5169841;28;20056;-31
2021/12/15 13:14:06;;;;;;;41.83;33.73;;;14.70;95.30;;;;;;5170302;28;20050;-31
2021/12/15 13:16:50;;;;;;;49.27;39.90;;;14.20;96.00;;;;;;5169897;28;20440;-32
2021/12/15 13:19:43;;;;;;;53.63;39.37;;;12.90;98.20;;;;;;5168422;28;20057;-33
2021/12/15 13:31:26;;;;;;;46.83;34.27;;;11.70;99.90;;;;;;5157027;28;20050;-33
2021/12/15 13:33:59;;;;;;;49.20;31.73;;;11.60;99.90;;;;;;5149618;28;20055;-32
2021/12/15 13:36:43;;;;;;;46.90;30.83;;;11.50;99.90;;;;;;5169294;28;20480;-31
2021/12/15 13:39:17;;;;;;;53.07;36.37;;;11.50;99.90;;;;;;5153203;28;20061;-31
2021/12/15 13:44:40;;;;;;;54.80;36.83;;;11.50;99.90;;;;;;5153750;28;20046;-32
2021/12/15 13:47:18;;;;;;;55.53;37.63;;;11.50;99.90;;;;;;5169404;28;20097;-30
2021/12/15 13:49:57;;;;;;;57.57;37.33;;;11.40;99.90;;;;;;5152706;28;20042;-30
2021/12/15 13:52:45;;;;;;;88.73;60.57;;;11.40;99.90;;;;;;5150841;28;20483;-31
2021/12/15 13:55:22;;;;;;;108.47;66.27;;;11.30;99.90;;;;;;5137494;28;20055;-32
2021/12/15 13:58:16;;;;;;;91.90;53.03;;;11.20;99.90;;;;;;5168994;28;20046;-30
2021/12/15 14:00:52;;;;;;;93.50;57.03;;;11.20;99.90;;;;;;5169167;28;20542;-31
2021/12/15 14:03:37;;;;;;;107.83;65.17;;;11.20;99.90;;;;;;5151868;28;20507;-30
2021/12/15 14:06:13;;;;;;;72.00;48.37;;;11.20;99.90;;;;;;5152142;28;20050;-33
2021/12/15 14:08:48;;;;;;;64.53;43.27;;;11.10;99.90;;;;;;5151698;28;20125;-30
2021/12/15 14:11:30;;;;;;;59.67;39.40;;;11.10;99.90;;;;;;5152251;28;20053;-32
2021/12/15 14:14:05;;;;;;;54.77;38.57;;;11.10;99.90;;;;;;5168953;28;20488;-33
2021/12/15 14:16:43;;;;;;;59.97;39.90;;;11.00;99.90;;;;;;5169234;28;20396;-32
2021/12/15 14:19:20;;;;;;;59.63;40.30;;;11.00;99.90;;;;;;5168720;28;20050;-33
2021/12/15 14:22:08;;;;;;;57.33;39.40;;;11.00;99.90;;;;;;5151647;28;20129;-30
2021/12/15 14:24:40;;;;;;;54.07;35.43;;;11.00;99.90;;;;;;5152812;28;20047;-33
2021/12/15 14:27:11;;;;;;;60.13;37.97;;;11.00;99.90;;;;;;5167937;28;20385;-32
2021/12/15 14:29:42;;;;;;;55.37;36.43;;;11.00;99.90;;;;;;5168260;28;20051;-31
2021/12/15 14:32:50;;;;;;;57.57;36.83;;;11.00;99.90;;;;;;5167951;28;20092;-31
2021/12/15 14:35:26;;;;;;;54.57;35.37;;;11.10;99.90;;;;;;5106015;29;20066;-29
2021/12/15 14:37:59;;;;;;;54.83;33.73;;;11.10;99.90;;;;;;5074483;29;20055;-30
2021/12/15 14:40:37;;;;;;;47.97;30.97;;;11.20;99.90;;;;;;5105716;29;20490;-31
2021/12/15 14:43:14;;;;;;;45.90;32.20;;;11.30;99.90;;;;;;5074053;29;20051;-32
2021/12/15 14:46:05;;;;;;;52.00;32.93;;;11.40;99.90;;;;;;5072560;29;20060;-31
2021/12/15 14:48:58;;;;;;;48.17;32.30;;;11.40;99.90;;;;;;5078505;29;20138;-29
2021/12/15 14:51:32;;;;;;;48.27;33.10;;;11.40;99.90;;;;;;5089851;29;20055;-29
2021/12/15 14:54:06;;;;;;;53.90;35.60;;;11.40;99.90;;;;;;5059732;29;20075;-32
2021/12/15 14:56:49;;;;;;;44.83;32.60;;;11.50;99.90;;;;;;5105684;29;20451;-31
2021/12/15 14:59:24;;;;;;;54.95;35.10;;;11.40;99.90;;;;;;5105473;29;20527;-30